Time;durP1;ratioP1;P1;durP2;ratioP2;P2;SDS_P1;SDS_P2;PMS_P1;PMS_P2;Temp;Humidity;BMP_temperature;BMP_pressure;BME280_temperature;BME280_humidity;BME280_pressure;Samples;Min_cycle;Max_cycle;Signal;HPM_P1;HPM_P2
2022/10/23 00:00:34;;;;;;;2.13;1.20;;;10.00;99.90;;;;;;4912953;29;20399;-73
2022/10/23 00:03:00;;;;;;;;;;;9.90;99.90;;;;;;4914555;29;20131;-74
2022/10/23 00:05:27;;;;;;;1.58;1.08;;;10.00;99.90;;;;;;4895096;29;20026;-73
2022/10/23 00:07:55;;;;;;;2.17;1.15;;;9.80;99.90;;;;;;4875682;29;20194;-73
2022/10/23 00:10:22;;;;;;;1.80;1.30;;;9.80;99.90;;;;;;4897794;29;20134;-73
2022/10/23 00:12:48;;;;;;;1.60;1.15;;;10.20;99.90;;;;;;4896499;29;20052;-72
2022/10/23 00:15:16;;;;;;;1.92;1.30;;;9.70;99.90;;;;;;4895654;29;20107;-73
2022/10/23 00:17:42;;;;;;;1.38;1.00;;;10.20;99.90;;;;;;4876263;29;20060;-73
2022/10/23 00:20:08;;;;;;;1.80;0.90;;;10.10;99.90;;;;;;4879275;29;20067;-73
2022/10/23 00:22:35;;;;;;;2.08;1.00;;;10.10;99.90;;;;;;4890734;29;20441;-73
2022/10/23 00:25:00;;;;;;;;;;;10.10;99.90;;;;;;4886972;29;20059;-73
2022/10/23 00:27:26;;;;;;;1.05;0.95;;;10.00;99.90;;;;;;4893837;29;19923;-73
2022/10/23 00:29:52;;;;;;;1.33;1.00;;;10.00;99.90;;;;;;4893814;29;20048;-73
2022/10/23 00:32:18;;;;;;;1.17;1.02;;;10.20;99.90;;;;;;4896627;29;20103;-73
2022/10/23 00:34:43;;;;;;;1.00;0.90;;;9.90;99.90;;;;;;4893722;29;20053;-73
2022/10/23 00:37:09;;;;;;;1.30;1.00;;;10.00;99.90;;;;;;4899110;29;20040;-73
2022/10/23 00:39:35;;;;;;;1.65;1.17;;;9.80;99.90;;;;;;4897614;29;20151;-73
2022/10/23 00:42:01;;;;;;;1.27;0.90;;;9.70;99.90;;;;;;4897744;29;20464;-73
2022/10/23 00:44:29;;;;;;;1.77;1.35;;;9.90;99.90;;;;;;4896086;29;20044;-73
2022/10/23 00:46:57;;;;;;;1.90;1.52;;;9.70;99.90;;;;;;4897462;29;20170;-73
2022/10/23 00:49:24;;;;;;;2.58;1.50;;;9.90;99.90;;;;;;4897144;29;20120;-73
2022/10/23 00:51:54;;;;;;;2.67;1.48;;;10.30;99.90;;;;;;4896317;29;20052;-73
2022/10/23 00:54:24;;;;;;;1.75;1.35;;;9.80;99.90;;;;;;4898608;29;20495;-73
2022/10/23 00:56:52;;;;;;;1.80;1.40;;;10.40;99.90;;;;;;4897016;29;20521;-73
2022/10/23 00:59:18;;;;;;;1.30;1.20;;;10.40;99.90;;;;;;4884204;29;20099;-72
2022/10/23 01:01:43;;;;;;;2.47;1.42;;;10.10;99.90;;;;;;4881235;29;20061;-73
2022/10/23 01:04:10;;;;;;;2.75;1.35;;;10.20;99.90;;;;;;4882360;29;20041;-73
2022/10/23 01:06:36;;;;;;;;;;;10.50;99.90;;;;;;4897535;29;20052;-73
2022/10/23 01:09:20;;;;;;;1.60;1.20;;;10.60;99.90;;;;;;4911983;29;19975;-73
2022/10/23 01:11:55;;;;;;;1.45;1.25;;;10.00;99.90;;;;;;4893607;29;20052;-73
2022/10/23 01:14:38;;;;;;;1.10;1.00;;;10.00;99.90;;;;;;4881812;29;20064;-73
2022/10/23 01:17:29;;;;;;;1.50;1.17;;;10.50;99.90;;;;;;4897210;29;20061;-73
2022/10/23 01:20:11;;;;;;;1.42;1.00;;;10.20;99.90;;;;;;4896808;29;20053;-73
2022/10/23 01:23:14;;;;;;;1.20;1.10;;;10.40;99.90;;;;;;4896492;29;20135;-73
2022/10/23 01:26:03;;;;;;;1.50;1.10;;;10.50;99.90;;;;;;4895911;29;20479;-73
2022/10/23 01:28:42;;;;;;;1.10;1.00;;;10.70;99.90;;;;;;4896458;29;20048;-73
2022/10/23 01:31:13;;;;;;;1.83;1.10;;;10.60;99.90;;;;;;4898351;29;20052;-78
2022/10/23 01:33:45;;;;;;;1.05;0.90;;;10.60;99.90;;;;;;4881573;29;20048;-78
2022/10/23 01:36:17;;;;;;;1.60;1.08;;;10.80;99.90;;;;;;4913877;29;20448;-78
2022/10/23 01:38:55;;;;;;;1.60;1.25;;;10.80;99.90;;;;;;4881418;29;20040;-79
2022/10/23 01:41:31;;;;;;;1.17;0.98;;;10.80;99.90;;;;;;4912135;29;20091;-79
2022/10/23 01:44:31;;;;;;;1.47;1.10;;;10.10;99.90;;;;;;4897040;29;20051;-78
2022/10/23 01:46:57;;;;;;;1.10;1.00;;;10.30;99.90;;;;;;4892420;29;20319;-77
2022/10/23 01:49:23;;;;;;;1.20;1.00;;;10.10;99.90;;;;;;4896904;29;20495;-78
2022/10/23 01:51:53;;;;;;;2.40;1.30;;;10.90;99.90;;;;;;4880847;29;20060;-78
2022/10/23 01:54:24;;;;;;;1.60;1.17;;;10.90;99.90;;;;;;4897880;29;20136;-73
2022/10/23 01:56:51;;;;;;;1.05;0.90;;;10.70;99.90;;;;;;4896002;29;20045;-73
2022/10/23 01:59:29;;;;;;;1.40;0.98;;;10.50;99.90;;;;;;4898576;29;20495;-73
2022/10/23 02:01:57;;;;;;;1.20;1.10;;;10.20;99.90;;;;;;4895727;29;20492;-73
2022/10/23 02:04:29;;;;;;;1.23;1.00;;;11.00;99.90;;;;;;4898418;29;20044;-73
2022/10/23 02:06:55;;;;;;;2.17;1.30;;;10.20;99.90;;;;;;4898728;29;20044;-73
2022/10/23 02:09:21;;;;;;;1.85;1.20;;;10.40;99.90;;;;;;4883217;29;20052;-74
2022/10/23 02:12:17;;;;;;;1.48;1.33;;;10.20;99.90;;;;;;4898631;29;20040;-73
2022/10/23 02:14:49;;;;;;;1.73;1.30;;;10.30;99.90;;;;;;4878048;29;20587;-73
2022/10/23 02:17:18;;;;;;;1.30;1.17;;;10.90;99.90;;;;;;4882715;29;20064;-73
2022/10/23 02:20:19;;;;;;;1.88;1.30;;;10.00;99.90;;;;;;4895493;29;20125;-73
2022/10/23 02:22:59;;;;;;;2.17;1.40;;;10.00;99.90;;;;;;4878620;29;20056;-74
2022/10/23 02:25:32;;;;;;;1.70;1.60;;;10.60;99.90;;;;;;4894737;29;20654;-74
2022/10/23 02:28:02;;;;;;;1.90;1.42;;;10.70;99.90;;;;;;4895887;29;20488;-74
2022/10/23 02:30:29;;;;;;;1.92;1.50;;;9.90;99.90;;;;;;4897611;29;20151;-78
2022/10/23 02:32:56;;;;;;;1.48;1.30;;;9.80;99.90;;;;;;4905956;29;20052;-78
2022/10/23 02:35:23;;;;;;;2.35;1.30;;;10.20;99.90;;;;;;4880001;29;20131;-73
2022/10/23 02:37:57;;;;;;;1.63;1.10;;;10.10;99.90;;;;;;4895588;29;20055;-73
2022/10/23 02:40:40;;;;;;;1.65;1.40;;;9.50;99.90;;;;;;4879129;29;20052;-74
2022/10/23 02:43:35;;;;;;;1.50;1.30;;;9.80;99.90;;;;;;4880913;29;20441;-74
2022/10/23 02:46:46;;;;;;;1.77;1.30;;;10.10;99.90;;;;;;4894977;29;20048;-74
2022/10/23 02:49:48;;;;;;;1.58;1.20;;;9.80;99.90;;;;;;4897136;29;20530;-73
2022/10/23 02:52:21;;;;;;;2.25;1.38;;;9.40;99.90;;;;;;4885099;29;20052;-73
2022/10/23 02:55:19;;;;;;;1.70;1.60;;;10.10;99.90;;;;;;4878836;29;20056;-73
2022/10/23 02:58:03;;;;;;;1.63;1.45;;;10.10;99.90;;;;;;4893549;29;20070;-73
2022/10/23 03:00:31;;;;;;;1.77;1.42;;;9.50;99.90;;;;;;4898005;29;20115;-73
2022/10/23 03:03:06;;;;;;;1.85;1.38;;;10.20;99.90;;;;;;4897158;29;20055;-74
2022/10/23 03:05:35;;;;;;;1.60;1.30;;;9.50;99.90;;;;;;4894043;29;20048;-74
2022/10/23 03:08:08;;;;;;;1.42;1.25;;;9.80;99.90;;;;;;4911099;29;20045;-74
2022/10/23 03:10:34;;;;;;;1.65;1.30;;;9.50;99.90;;;;;;4894890;29;20127;-73
2022/10/23 03:12:59;;;;;;;1.52;1.38;;;9.90;99.90;;;;;;4878978;29;20575;-73
2022/10/23 03:15:25;;;;;;;2.08;1.55;;;10.50;99.90;;;;;;4878893;29;20131;-74
2022/10/23 03:17:51;;;;;;;1.88;1.40;;;10.00;99.90;;;;;;4894481;29;20523;-73
2022/10/23 03:20:17;;;;;;;1.50;1.40;;;10.70;99.90;;;;;;4881047;29;20127;-73
2022/10/23 03:22:43;;;;;;;;;;;10.10;99.90;;;;;;4894842;29;20057;-73
2022/10/23 03:25:09;;;;;;;1.45;1.30;;;10.80;99.90;;;;;;4895106;29;19923;-72
2022/10/23 03:27:35;;;;;;;1.90;1.50;;;10.50;99.90;;;;;;4878925;29;20053;-73
2022/10/23 03:30:01;;;;;;;2.13;1.10;;;10.50;99.90;;;;;;4879277;29;20049;-73
2022/10/23 03:32:26;;;;;;;1.40;1.30;;;10.40;99.90;;;;;;4894893;29;20187;-73
2022/10/23 03:34:52;;;;;;;1.33;1.17;;;10.30;99.90;;;;;;4893655;29;20555;-73
2022/10/23 03:37:18;;;;;;;1.35;1.13;;;10.60;99.90;;;;;;4897448;29;20099;-73
2022/10/23 03:39:44;;;;;;;1.20;1.00;;;10.60;99.90;;;;;;4879078;29;20470;-73
2022/10/23 03:42:09;;;;;;;1.20;1.08;;;10.60;99.90;;;;;;4895860;29;20485;-74
2022/10/23 03:44:35;;;;;;;1.80;1.33;;;10.20;99.90;;;;;;4862580;29;20044;-73
2022/10/23 03:47:01;;;;;;;2.00;1.60;;;10.60;99.90;;;;;;4895260;29;20501;-73
2022/10/23 03:49:26;;;;;;;1.85;1.40;;;10.60;99.90;;;;;;4878845;29;20487;-73
2022/10/23 03:51:52;;;;;;;1.80;1.30;;;11.00;99.90;;;;;;4894509;29;20079;-73
2022/10/23 03:54:22;;;;;;;1.70;1.50;;;10.10;99.90;;;;;;4896049;29;20558;-73
2022/10/23 03:56:49;;;;;;;1.33;1.20;;;10.80;99.90;;;;;;4894225;29;20053;-73
2022/10/23 03:59:15;;;;;;;1.52;1.10;;;10.90;99.90;;;;;;4896485;29;20060;-73
2022/10/23 04:01:41;;;;;;;;;;;10.80;99.90;;;;;;4894634;29;20400;-73
2022/10/23 04:04:06;;;;;;;1.67;1.25;;;10.70;99.90;;;;;;4878963;29;19919;-73
2022/10/23 04:06:32;;;;;;;1.30;1.20;;;10.70;99.90;;;;;;4894277;29;20049;-74
2022/10/23 04:08:58;;;;;;;1.80;1.20;;;10.60;99.90;;;;;;4893808;29;20040;-73
2022/10/23 04:11:23;;;;;;;2.00;1.33;;;9.90;99.90;;;;;;4897921;29;20044;-73
2022/10/23 04:13:49;;;;;;;1.40;1.20;;;9.90;99.90;;;;;;4881346;29;20048;-74
2022/10/23 04:16:15;;;;;;;1.40;1.30;;;10.00;99.90;;;;;;4900175;29;20058;-74
2022/10/23 04:18:41;;;;;;;2.10;1.60;;;10.60;99.90;;;;;;4897513;29;20052;-73
2022/10/23 04:21:07;;;;;;;1.63;1.48;;;10.10;99.90;;;;;;4899142;29;20052;-73
2022/10/23 04:23:33;;;;;;;2.10;1.67;;;10.50;99.90;;;;;;4897942;29;20345;-73
2022/10/23 04:25:59;;;;;;;1.52;1.42;;;10.10;99.90;;;;;;4914303;29;20044;-74
2022/10/23 04:28:25;;;;;;;2.92;1.95;;;9.80;99.90;;;;;;4897340;29;20135;-72
2022/10/23 04:30:51;;;;;;;2.92;1.90;;;10.50;99.90;;;;;;4913473;29;20372;-73
2022/10/23 04:33:17;;;;;;;2.35;1.70;;;10.40;99.90;;;;;;4869033;29;20044;-72
2022/10/23 04:35:42;;;;;;;1.83;1.63;;;9.90;99.90;;;;;;4896783;29;20484;-72
2022/10/23 04:38:08;;;;;;;2.05;1.83;;;10.40;99.90;;;;;;4899191;29;20426;-73
2022/10/23 04:40:34;;;;;;;3.22;2.00;;;10.40;99.90;;;;;;4897173;29;20557;-73
2022/10/23 04:43:00;;;;;;;1.60;1.50;;;10.00;99.90;;;;;;4881087;29;20086;-73
2022/10/23 04:45:25;;;;;;;1.67;1.50;;;10.50;99.90;;;;;;4896524;29;20052;-78
2022/10/23 04:47:52;;;;;;;2.20;2.00;;;10.50;99.90;;;;;;4883260;29;20041;-78
2022/10/23 04:50:19;;;;;;;2.15;1.73;;;9.70;99.90;;;;;;4901692;29;20103;-78
2022/10/23 04:52:44;;;;;;;2.30;1.70;;;10.50;99.90;;;;;;4914741;29;20558;-78
2022/10/23 04:55:10;;;;;;;1.75;1.40;;;9.90;99.90;;;;;;4900133;29;20079;-79
2022/10/23 04:57:36;;;;;;;1.88;1.63;;;9.80;99.90;;;;;;4897864;29;20048;-78
2022/10/23 05:00:05;;;;;;;2.00;1.80;;;9.80;99.90;;;;;;4882168;29;20056;-78
2022/10/23 05:02:31;;;;;;;2.20;1.90;;;9.80;99.90;;;;;;4897716;29;20083;-78
2022/10/23 05:04:57;;;;;;;2.60;2.08;;;10.70;99.90;;;;;;4913215;29;20067;-78
2022/10/23 05:07:22;;;;;;;2.60;2.20;;;9.90;99.90;;;;;;4897355;29;20492;-78
2022/10/23 05:09:48;;;;;;;2.40;1.98;;;10.70;99.90;;;;;;4898239;29;20107;-78
2022/10/23 05:12:14;;;;;;;4.50;2.70;;;10.40;99.90;;;;;;4884447;29;20049;-77
2022/10/23 05:14:39;;;;;;;3.78;3.00;;;10.40;99.90;;;;;;4896511;29;20064;-77
2022/10/23 05:17:17;;;;;;;2.80;2.50;;;10.80;99.90;;;;;;4898179;29;20064;-78
2022/10/23 05:19:52;;;;;;;3.50;2.20;;;10.70;99.90;;;;;;4897124;29;20048;-78
2022/10/23 05:22:19;;;;;;;2.38;1.92;;;10.50;99.90;;;;;;4899139;29;20052;-78
2022/10/23 05:24:45;;;;;;;2.00;1.80;;;10.70;99.90;;;;;;4895887;29;20131;-78
2022/10/23 05:27:11;;;;;;;3.17;2.10;;;10.00;99.90;;;;;;4899478;29;20128;-78
2022/10/23 05:29:36;;;;;;;2.15;1.75;;;10.70;99.90;;;;;;4896991;29;20123;-78
2022/10/23 05:32:05;;;;;;;3.20;2.22;;;10.70;99.90;;;;;;4897919;29;20122;-77
2022/10/23 05:34:33;;;;;;;3.20;2.28;;;10.80;99.90;;;;;;4880792;29;20048;-77
2022/10/23 05:37:00;;;;;;;4.70;2.53;;;10.80;99.90;;;;;;4896799;29;20123;-72
2022/10/23 05:39:26;;;;;;;3.03;2.30;;;10.40;99.90;;;;;;4916492;29;20510;-72
2022/10/23 05:41:53;;;;;;;3.88;3.20;;;10.80;99.90;;;;;;4895557;29;20061;-73
2022/10/23 05:44:20;;;;;;;2.80;2.40;;;10.50;99.90;;;;;;4898069;29;20044;-72
2022/10/23 05:46:46;;;;;;;;;;;10.80;99.90;;;;;;4896931;29;20502;-73
2022/10/23 05:49:11;;;;;;;3.30;2.85;;;10.80;99.90;;;;;;4898257;29;20006;-73
2022/10/23 05:51:38;;;;;;;3.60;2.67;;;10.90;99.90;;;;;;4911934;29;20489;-73
2022/10/23 05:54:07;;;;;;;3.95;2.83;;;10.50;99.90;;;;;;4880871;29;20162;-73
2022/10/23 05:56:40;;;;;;;3.08;2.78;;;10.00;99.90;;;;;;4897113;29;20176;-73
2022/10/23 05:59:06;;;;;;;4.32;3.08;;;10.90;99.90;;;;;;4894989;29;20060;-73
2022/10/23 06:01:32;;;;;;;;;;;10.30;99.90;;;;;;4893168;29;20139;-73
2022/10/23 06:03:59;;;;;;;3.75;3.00;;;10.50;99.90;;;;;;4894329;29;19919;-72
2022/10/23 06:06:25;;;;;;;2.45;2.20;;;10.00;99.90;;;;;;4861722;29;20036;-73
2022/10/23 06:08:50;;;;;;;4.13;2.55;;;10.00;99.90;;;;;;4893519;29;20511;-77
2022/10/23 06:11:16;;;;;;;3.17;2.42;;;11.00;99.90;;;;;;4896151;29;20510;-72
2022/10/23 06:13:43;;;;;;;2.90;2.30;;;11.00;99.90;;;;;;4891365;29;20622;-73
2022/10/23 06:16:26;;;;;;;2.80;2.30;;;11.00;99.90;;;;;;4913291;29;20040;-72
2022/10/23 06:18:52;;;;;;;3.55;3.20;;;10.70;99.90;;;;;;4883346;29;20067;-72
2022/10/23 06:21:18;;;;;;;;;;;10.30;99.90;;;;;;4898425;29;20055;-73
2022/10/23 06:23:45;;;;;;;3.40;2.40;;;10.90;99.90;;;;;;4911993;29;19923;-72
2022/10/23 06:26:13;;;;;;;3.85;2.80;;;10.90;99.90;;;;;;4913739;29;20388;-73
2022/10/23 06:28:40;;;;;;;3.53;2.95;;;9.90;99.90;;;;;;4888550;29;20507;-72
2022/10/23 06:31:07;;;;;;;4.28;3.22;;;10.00;99.90;;;;;;4873247;29;20470;-73
2022/10/23 06:33:33;;;;;;;4.60;3.85;;;10.20;99.90;;;;;;4885097;29;20181;-71
2022/10/23 06:35:58;;;;;;;4.82;3.50;;;10.50;99.90;;;;;;4879958;29;20596;-73
2022/10/23 06:38:24;;;;;;;3.78;3.20;;;10.30;99.90;;;;;;4915735;29;20044;-74
2022/10/23 06:40:54;;;;;;;3.65;2.83;;;10.80;99.90;;;;;;4882083;29;20131;-73
2022/10/23 06:43:20;;;;;;;3.08;2.70;;;10.80;99.90;;;;;;4894777;29;20111;-72
2022/10/23 06:45:46;;;;;;;3.95;2.97;;;10.70;99.90;;;;;;4894685;29;20135;-72
2022/10/23 06:48:11;;;;;;;3.30;2.85;;;11.00;99.90;;;;;;4900503;29;20052;-75
2022/10/23 06:50:37;;;;;;;3.75;2.63;;;10.10;99.90;;;;;;4908636;29;20051;-71
2022/10/23 06:53:04;;;;;;;4.47;3.22;;;11.10;99.90;;;;;;4899921;29;20098;-72
2022/10/23 06:55:31;;;;;;;4.30;3.45;;;11.10;99.90;;;;;;4913205;29;20048;-72
2022/10/23 06:57:57;;;;;;;4.03;3.10;;;10.20;99.90;;;;;;4897300;29;20047;-74
2022/10/23 07:00:23;;;;;;;5.50;3.95;;;10.50;99.90;;;;;;4903287;29;20044;-72
2022/10/23 07:02:49;;;;;;;3.75;3.20;;;11.20;99.90;;;;;;4877786;29;20076;-72
2022/10/23 07:05:16;;;;;;;4.38;3.65;;;10.30;99.90;;;;;;4881608;29;20395;-71
2022/10/23 07:07:41;;;;;;;3.97;3.30;;;11.10;99.90;;;;;;4879576;29;20437;-72
2022/10/23 07:10:08;;;;;;;4.38;2.65;;;10.40;99.90;;;;;;4896231;29;20121;-73
2022/10/23 07:12:33;;;;;;;3.42;2.88;;;11.20;99.90;;;;;;4894765;29;20523;-72
2022/10/23 07:14:59;;;;;;;4.38;2.75;;;11.00;99.90;;;;;;4881740;29;20044;-72
2022/10/23 07:17:25;;;;;;;2.80;2.42;;;10.60;99.90;;;;;;4894671;29;20091;-72
2022/10/23 07:19:50;;;;;;;3.80;2.90;;;10.50;99.90;;;;;;4879411;29;20144;-73
2022/10/23 07:22:16;;;;;;;3.40;2.67;;;11.50;99.90;;;;;;4896871;29;20585;-73
2022/10/23 07:24:42;;;;;;;2.70;2.35;;;11.60;99.90;;;;;;4913877;29;20047;-72
2022/10/23 07:27:07;;;;;;;2.65;2.15;;;10.60;99.90;;;;;;4879996;29;20047;-72
2022/10/23 07:29:33;;;;;;;4.82;3.15;;;10.60;99.90;;;;;;4879109;29;20049;-72
2022/10/23 07:32:03;;;;;;;6.53;3.72;;;11.00;99.90;;;;;;4893570;29;20048;-72
2022/10/23 07:34:30;;;;;;;4.15;3.30;;;10.60;99.90;;;;;;4894378;29;20056;-72
2022/10/23 07:36:56;;;;;;;5.25;3.33;;;10.60;99.90;;;;;;4894262;29;20131;-72
2022/10/23 07:39:21;;;;;;;3.60;2.95;;;11.80;99.90;;;;;;4914006;29;20195;-72
2022/10/23 07:41:48;;;;;;;4.13;2.70;;;10.70;99.90;;;;;;4891119;29;20063;-72
2022/10/23 07:44:14;;;;;;;4.90;3.75;;;11.10;99.90;;;;;;4877917;29;20104;-71
2022/10/23 07:46:40;;;;;;;;;;;10.90;99.90;;;;;;4893075;29;20053;-72
2022/10/23 07:49:05;;;;;;;3.58;3.00;;;11.90;99.90;;;;;;4907208;29;20302;-74
2022/10/23 07:51:31;;;;;;;4.88;3.33;;;11.90;99.90;;;;;;4909681;29;20055;-71
2022/10/23 07:53:57;;;;;;;3.42;2.72;;;11.20;99.90;;;;;;4894148;29;20053;-72
2022/10/23 07:56:25;;;;;;;3.40;2.45;;;11.90;99.90;;;;;;4894881;29;20048;-80
2022/10/23 07:58:54;;;;;;;2.70;2.00;;;11.80;99.90;;;;;;4897640;29;20048;-80
2022/10/23 08:01:41;;;;;;;2.45;1.70;;;11.90;99.90;;;;;;4902140;29;20060;-80
2022/10/23 08:04:08;;;;;;;3.35;2.15;;;11.10;99.90;;;;;;4894070;29;20064;-80
2022/10/23 08:06:34;;;;;;;3.10;2.25;;;11.70;99.90;;;;;;4875304;29;20734;-80
2022/10/23 08:09:00;;;;;;;;;;;11.50;99.90;;;;;;4889694;29;20049;-80
2022/10/23 08:11:27;;;;;;;4.57;2.40;;;12.10;99.90;;;;;;4904090;29;20313;-80
2022/10/23 08:13:54;;;;;;;3.42;2.45;;;11.10;99.90;;;;;;4894068;29;20049;-79
2022/10/23 08:16:21;;;;;;;3.08;2.35;;;11.20;99.90;;;;;;4889064;29;20042;-79
2022/10/23 08:18:48;;;;;;;3.33;2.10;;;11.30;99.90;;;;;;4880111;29;20116;-78
2022/10/23 08:21:15;;;;;;;2.55;2.08;;;11.70;99.90;;;;;;4899766;29;20153;-78
2022/10/23 08:23:41;;;;;;;3.50;2.70;;;11.30;99.90;;;;;;4917522;29;20076;-78
2022/10/23 08:26:07;;;;;;;3.60;2.67;;;12.00;99.90;;;;;;4908705;29;20096;-78
2022/10/23 08:28:33;;;;;;;3.25;2.40;;;12.30;99.90;;;;;;4933539;29;20058;-79
2022/10/23 08:31:05;;;;;;;;;;;11.50;99.90;;;;;;4875182;29;20049;-78
2022/10/23 08:33:31;;;;;;;3.80;2.78;;;11.50;99.90;;;;;;4878600;29;19990;-79
2022/10/23 08:35:57;;;;;;;2.45;2.10;;;12.20;99.90;;;;;;4888613;29;20080;-77
2022/10/23 08:38:23;;;;;;;4.43;2.92;;;12.20;99.90;;;;;;4885731;29;20051;-74
2022/10/23 08:40:49;;;;;;;3.63;2.50;;;12.60;99.90;;;;;;4892309;29;20064;-73
2022/10/23 08:43:19;;;;;;;3.42;2.25;;;12.60;99.90;;;;;;4895118;29;20045;-72
2022/10/23 08:45:51;;;;;;;2.63;2.35;;;12.60;99.90;;;;;;4914614;29;20108;-74
2022/10/23 08:48:27;;;;;;;2.60;1.90;;;12.60;99.90;;;;;;4895710;29;20055;-73
2022/10/23 08:51:16;;;;;;;2.35;2.05;;;12.70;99.90;;;;;;4878317;29;20068;-74
2022/10/23 08:54:01;;;;;;;2.83;2.25;;;12.60;99.90;;;;;;4895902;29;20039;-74
2022/10/23 08:56:32;;;;;;;3.10;1.90;;;11.90;99.90;;;;;;4889414;29;20066;-73
2022/10/23 08:59:18;;;;;;;4.30;2.38;;;12.10;99.90;;;;;;4899458;29;20043;-73
2022/10/23 09:02:00;;;;;;;3.10;2.30;;;13.00;99.90;;;;;;4897783;29;20064;-74
2022/10/23 09:04:26;;;;;;;3.47;2.10;;;12.80;99.90;;;;;;4895830;29;20040;-73
2022/10/23 09:07:11;;;;;;;5.07;3.17;;;12.50;99.90;;;;;;4895522;29;20044;-73
2022/10/23 09:09:53;;;;;;;3.13;2.33;;;13.10;99.90;;;;;;4895796;29;20055;-73
2022/10/23 09:12:24;;;;;;;3.28;2.53;;;13.30;99.90;;;;;;4885002;29;20051;-73
2022/10/23 09:15:15;;;;;;;2.22;1.90;;;12.50;99.90;;;;;;4900482;29;20052;-73
2022/10/23 09:17:42;;;;;;;2.35;2.00;;;12.70;99.90;;;;;;4880152;29;20056;-73
2022/10/23 09:20:24;;;;;;;3.00;2.30;;;12.80;99.90;;;;;;4898266;29;20052;-73
2022/10/23 09:22:57;;;;;;;3.83;2.95;;;13.50;99.90;;;;;;4915380;29;20108;-73
2022/10/23 09:25:29;;;;;;;3.28;2.65;;;13.00;99.90;;;;;;4885254;29;20127;-73
2022/10/23 09:27:58;;;;;;;2.60;2.30;;;13.00;99.90;;;;;;4898724;29;20131;-73
2022/10/23 09:30:36;;;;;;;3.42;2.30;;;13.60;99.90;;;;;;4910009;29;20111;-73
2022/10/23 09:33:27;;;;;;;2.92;2.30;;;13.00;99.90;;;;;;4897037;29;20094;-74
2022/10/23 09:36:00;;;;;;;3.42;2.30;;;13.50;99.90;;;;;;4877827;29;20040;-73
2022/10/23 09:38:33;;;;;;;3.42;2.97;;;13.20;99.90;;;;;;4891641;29;20059;-72
2022/10/23 09:41:09;;;;;;;2.67;2.22;;;13.20;99.90;;;;;;4906340;29;20048;-74
2022/10/23 09:43:35;;;;;;;4.00;3.25;;;13.40;99.90;;;;;;4895632;29;20071;-74
2022/10/23 09:46:05;;;;;;;3.55;2.83;;;13.80;99.90;;;;;;4895308;29;20489;-73
2022/10/23 09:48:32;;;;;;;6.20;3.60;;;13.70;99.90;;;;;;4895395;29;20119;-73
2022/10/23 09:51:00;;;;;;;4.75;2.67;;;13.90;99.90;;;;;;4896253;29;20395;-74
2022/10/23 09:53:31;;;;;;;3.00;2.67;;;14.00;99.90;;;;;;4896145;29;20049;-74
2022/10/23 09:56:01;;;;;;;4.43;2.70;;;14.10;99.90;;;;;;4886217;29;20048;-74
2022/10/23 09:58:34;;;;;;;4.45;3.08;;;14.10;99.90;;;;;;4894404;29;20124;-74
2022/10/23 10:01:00;;;;;;;2.85;2.40;;;14.10;99.90;;;;;;4894679;29;20053;-73
2022/10/23 10:03:27;;;;;;;5.07;2.55;;;14.20;99.90;;;;;;4875670;29;20040;-73
2022/10/23 10:05:55;;;;;;;3.38;2.03;;;13.80;99.90;;;;;;4895367;29;20048;-73
2022/10/23 10:08:24;;;;;;;4.07;2.35;;;14.40;99.90;;;;;;4895306;29;20052;-73
2022/10/23 10:10:56;;;;;;;4.15;2.17;;;14.40;99.90;;;;;;4895285;29;20060;-72
2022/10/23 10:13:31;;;;;;;3.75;2.25;;;14.10;99.90;;;;;;4893399;29;20044;-73
2022/10/23 10:16:10;;;;;;;2.97;2.10;;;14.50;99.90;;;;;;4879564;29;20496;-73
2022/10/23 10:19:07;;;;;;;4.28;2.60;;;14.50;99.90;;;;;;4894037;29;20060;-73
2022/10/23 10:22:07;;;;;;;3.03;2.28;;;14.60;99.90;;;;;;4888720;29;20451;-74
2022/10/23 10:24:42;;;;;;;4.38;2.80;;;14.40;99.90;;;;;;4894134;29;20036;-73
2022/10/23 10:27:33;;;;;;;2.83;2.20;;;14.80;99.90;;;;;;4898070;29;20044;-73
2022/10/23 10:30:10;;;;;;;3.15;1.80;;;14.80;99.90;;;;;;4898207;29;20093;-73
2022/10/23 10:32:49;;;;;;;2.22;1.73;;;14.90;99.90;;;;;;4891815;29;20564;-74
2022/10/23 10:35:18;;;;;;;2.67;2.20;;;14.80;99.90;;;;;;4892943;29;20557;-73
2022/10/23 10:38:15;;;;;;;4.65;1.98;;;14.80;99.90;;;;;;4893721;29;20045;-73
2022/10/23 10:40:57;;;;;;;;;;;15.20;99.90;;;;;;4889062;29;20389;-73
2022/10/23 10:44:05;;;;;;;5.82;2.88;;;15.20;99.90;;;;;;4878688;29;20053;-73
2022/10/23 10:46:38;;;;;;;;;;;15.00;99.90;;;;;;4880682;29;20131;-73
2022/10/23 10:49:34;;;;;;;3.33;2.30;;;15.30;99.90;;;;;;4897203;29;19948;-72
2022/10/23 10:52:09;;;;;;;3.00;1.80;;;15.40;99.90;;;;;;4895659;29;20067;-72
2022/10/23 10:54:49;;;;;;;2.42;1.73;;;15.50;99.90;;;;;;4894177;29;20040;-73
2022/10/23 10:57:38;;;;;;;2.50;1.40;;;15.50;99.90;;;;;;4899058;29;20492;-73
2022/10/23 11:00:16;;;;;;;3.83;2.80;;;15.30;99.90;;;;;;4883784;29;20127;-73
2022/10/23 11:02:47;;;;;;;3.53;1.98;;;15.40;99.90;;;;;;4895929;29;20196;-74
2022/10/23 11:05:33;;;;;;;1.60;1.30;;;15.40;99.90;;;;;;4886346;29;20119;-75
2022/10/23 11:08:23;;;;;;;3.67;2.28;;;15.70;99.90;;;;;;4895181;29;20037;-74
2022/10/23 11:10:53;;;;;;;2.08;1.70;;;15.50;99.90;;;;;;4900880;29;20040;-73
2022/10/23 11:13:33;;;;;;;2.15;1.70;;;15.60;99.90;;;;;;4902095;29;21337;-73
2022/10/23 11:16:11;;;;;;;1.80;1.40;;;15.60;99.90;;;;;;4903998;29;20040;-73
2022/10/23 11:18:41;;;;;;;2.55;1.58;;;15.60;99.90;;;;;;4897054;29;20468;-73
2022/10/23 11:21:07;;;;;;;2.97;1.70;;;15.70;99.90;;;;;;4896090;29;20456;-73
2022/10/23 11:23:42;;;;;;;2.03;1.25;;;15.60;99.90;;;;;;4899530;29;20048;-72
2022/10/23 11:26:22;;;;;;;1.83;1.23;;;15.60;99.90;;;;;;4899346;29;20046;-72
2022/10/23 11:28:48;;;;;;;2.40;1.50;;;15.60;99.90;;;;;;4899972;29;20047;-71
2022/10/23 11:31:19;;;;;;;2.47;1.52;;;15.60;99.90;;;;;;4904011;29;20040;-73
2022/10/23 11:34:22;;;;;;;2.42;1.73;;;15.80;99.90;;;;;;4899691;29;20052;-75
2022/10/23 11:36:57;;;;;;;2.33;1.63;;;15.90;99.90;;;;;;4886404;29;20092;-73
2022/10/23 11:39:24;;;;;;;2.67;1.73;;;15.60;99.90;;;;;;4899264;29;20489;-73
2022/10/23 11:41:53;;;;;;;2.20;1.40;;;15.60;99.90;;;;;;4887654;29;20055;-74
2022/10/23 11:44:38;;;;;;;2.40;1.92;;;15.70;99.90;;;;;;4899293;29;20076;-72
2022/10/23 11:47:26;;;;;;;3.08;1.90;;;15.60;99.90;;;;;;4899706;29;20052;-72
2022/10/23 11:50:13;;;;;;;3.72;1.80;;;15.70;99.90;;;;;;4884592;29;20055;-72
2022/10/23 11:52:58;;;;;;;1.65;1.40;;;15.60;99.90;;;;;;4886623;29;20059;-73
2022/10/23 11:55:29;;;;;;;2.60;1.40;;;15.80;99.90;;;;;;4888071;29;20530;-71
2022/10/23 11:58:18;;;;;;;1.88;1.20;;;15.80;99.90;;;;;;4904215;29;20146;-71
2022/10/23 12:00:54;;;;;;;2.17;1.15;;;15.90;99.90;;;;;;4904045;29;20046;-71
2022/10/23 12:03:27;;;;;;;2.38;1.33;;;15.90;99.90;;;;;;4905883;29;20040;-71
2022/10/23 12:06:03;;;;;;;2.47;1.33;;;15.80;99.90;;;;;;4881700;29;20116;-71
2022/10/23 12:08:31;;;;;;;2.27;1.50;;;15.80;99.90;;;;;;4903743;29;20040;-71
2022/10/23 12:10:57;;;;;;;3.70;1.88;;;15.70;99.90;;;;;;4901465;29;20916;-71
2022/10/23 12:13:49;;;;;;;3.10;2.20;;;15.60;99.90;;;;;;4865706;29;20051;-72
2022/10/23 12:16:15;;;;;;;3.22;2.00;;;15.60;99.90;;;;;;4898095;29;20063;-72
2022/10/23 12:18:52;;;;;;;4.18;2.38;;;15.50;99.90;;;;;;4899547;29;20056;-71
2022/10/23 12:21:26;;;;;;;4.30;1.98;;;15.70;99.90;;;;;;4901816;29;20374;-72
2022/10/23 12:24:05;;;;;;;4.18;1.83;;;15.50;99.90;;;;;;4897521;29;20076;-71
2022/10/23 12:27:02;;;;;;;1.73;1.50;;;15.50;99.90;;;;;;4872261;29;20044;-71
2022/10/23 12:29:54;;;;;;;3.47;1.50;;;15.60;99.90;;;;;;4876446;29;20056;-72
2022/10/23 12:32:40;;;;;;;2.75;1.60;;;15.90;99.90;;;;;;4847430;29;20457;-72
2022/10/23 12:35:28;;;;;;;3.10;2.20;;;15.80;99.90;;;;;;4885736;29;20860;-71
2022/10/23 12:38:13;;;;;;;2.97;1.77;;;15.70;99.90;;;;;;4896327;29;20048;-71
2022/10/23 12:40:39;;;;;;;3.17;2.08;;;15.90;99.90;;;;;;4901018;29;20053;-71
2022/10/23 12:43:19;;;;;;;;;;;15.90;99.90;;;;;;4883243;29;20388;-72
2022/10/23 12:45:45;;;;;;;4.03;2.15;;;15.70;99.90;;;;;;4894475;29;20323;-72
2022/10/23 12:48:22;;;;;;;5.22;2.47;;;15.80;99.90;;;;;;4892357;29;20040;-73
2022/10/23 12:50:51;;;;;;;3.22;2.17;;;15.70;99.90;;;;;;4875569;29;21021;-73
2022/10/23 12:53:19;;;;;;;4.38;2.10;;;15.80;99.90;;;;;;4896450;29;20044;-72
2022/10/23 12:55:58;;;;;;;2.90;1.85;;;15.80;99.90;;;;;;4895756;29;20044;-72
2022/10/23 12:58:28;;;;;;;4.28;2.30;;;15.90;99.90;;;;;;4896672;29;20132;-73
2022/10/23 13:00:57;;;;;;;4.93;1.88;;;15.90;99.90;;;;;;4896247;29;20072;-72
2022/10/23 13:03:25;;;;;;;2.15;1.67;;;16.00;99.90;;;;;;4901519;29;20071;-73
2022/10/23 13:05:53;;;;;;;2.92;1.80;;;15.80;99.90;;;;;;4916014;29;20098;-71
2022/10/23 13:08:21;;;;;;;2.05;1.52;;;16.10;99.90;;;;;;4915174;29;20052;-71
2022/10/23 13:10:48;;;;;;;3.42;1.80;;;16.10;99.90;;;;;;4897366;29;20048;-73
2022/10/23 13:13:18;;;;;;;1.90;1.20;;;16.00;99.90;;;;;;4905751;29;20048;-72